createdAt,value
2022-10-31T00:00:10.425Z,98972.55
2022-10-31T00:03:02.573Z,98973.63
2022-10-31T00:05:35.944Z,98972.25
2022-10-31T00:08:10.100Z,98969.33
2022-10-31T00:10:43.708Z,98969.20
2022-10-31T00:13:18.430Z,98968.69
2022-10-31T00:15:51.349Z,98967.10
2022-10-31T00:18:25.214Z,98968.61
2022-10-31T00:21:03.685Z,98966.69
2022-10-31T00:23:35.615Z,98969.70
2022-10-31T00:26:08.827Z,98966.89
2022-10-31T00:28:43.077Z,98967.08
2022-10-31T00:31:16.160Z,98971.52
2022-10-31T00:33:49.119Z,98968.71
2022-10-31T00:36:22.470Z,98970.65
2022-10-31T00:38:55.224Z,98971.73
2022-10-31T00:41:28.086Z,98976.55
2022-10-31T00:44:00.594Z,98975.68
2022-10-31T00:46:32.627Z,98971.44
2022-10-31T00:49:05.860Z,98968.25
2022-10-31T00:51:38.310Z,98973.42
2022-10-31T00:54:12.204Z,98972.72
2022-10-31T00:56:43.957Z,98971.31
2022-10-31T00:59:17.236Z,98974.13
2022-10-31T01:01:49.803Z,98977.48
2022-10-31T01:04:22.764Z,98978.02
2022-10-31T01:06:55.232Z,98982.05
2022-10-31T01:09:27.989Z,98982.23
2022-10-31T01:12:00.508Z,98983.28
2022-10-31T01:14:36.752Z,98982.23
2022-10-31T01:17:08.689Z,98981.87
2022-10-31T01:19:42.223Z,98980.64
2022-10-31T01:22:15.065Z,98978.54
2022-10-31T01:24:47.084Z,98980.82
2022-10-31T01:27:19.623Z,98979.58
2022-10-31T01:29:53.302Z,98979.93
2022-10-31T01:32:29.976Z,98980.11
2022-10-31T01:35:02.044Z,98979.92
2022-10-31T01:37:38.529Z,98979.23
2022-10-31T01:40:13.174Z,98979.21
2022-10-31T01:42:47.024Z,98973.23
2022-10-31T01:45:20.794Z,98973.58
2022-10-31T01:47:53.633Z,98973.76
2022-10-31T01:50:32.735Z,98971.83
2022-10-31T01:53:07.439Z,98972.54
2022-10-31T01:55:42.508Z,98977.65
2022-10-31T02:01:06.689Z,98971.32
2022-10-31T02:03:41.285Z,98971.48
2022-10-31T02:06:16.077Z,98968.86
2022-10-31T02:08:48.347Z,98971.67
2022-10-31T02:11:20.928Z,98968.33
2022-10-31T02:13:56.391Z,98969.39
2022-10-31T02:16:31.188Z,98968.33
2022-10-31T02:19:05.080Z,98968.33
2022-10-31T02:21:47.140Z,98966.73
2022-10-31T02:24:45.512Z,98966.54
2022-10-31T02:27:29.824Z,98973.58
2022-10-31T02:30:14.517Z,98977.46
2022-10-31T02:33:04.094Z,98978.88
2022-10-31T02:35:43.896Z,98976.94
2022-10-31T02:38:27.584Z,98983.63
2022-10-31T02:41:06.566Z,98983.45
2022-10-31T02:43:50.485Z,98988.21
2022-10-31T02:46:30.174Z,98989.77
2022-10-31T02:49:08.134Z,98987.12
2022-10-31T02:51:42.757Z,98992.23
2022-10-31T02:54:26.285Z,98991.68
2022-10-31T02:57:03.782Z,98992.89
2022-10-31T02:59:39.885Z,98993.44
2022-10-31T03:02:32.144Z,98993.98
2022-10-31T03:05:17.125Z,98992.37
2022-10-31T03:07:55.907Z,98996.92
2022-10-31T03:10:37.179Z,98994.63
2022-10-31T03:13:13.476Z,98997.96
2022-10-31T03:15:48.067Z,99000.60
2022-10-31T03:18:25.785Z,98999.88
2022-10-31T03:21:00.945Z,98999.51
2022-10-31T03:23:34.426Z,99001.08
2022-10-31T03:26:09.888Z,99001.77
2022-10-31T03:28:48.465Z,99002.11
2022-10-31T03:31:25.508Z,99000.02
2022-10-31T03:34:02.711Z,99003.19
2022-10-31T03:36:41.022Z,99002.30
2022-10-31T03:39:19.246Z,99008.27
2022-10-31T03:41:55.204Z,99004.39
2022-10-31T03:44:27.782Z,99010.19
2022-10-31T03:47:00.541Z,99010.09
2022-10-31T03:49:34.604Z,99012.73
2022-10-31T03:52:16.653Z,99014.14
2022-10-31T03:54:52.459Z,99018.71
2022-10-31T03:57:30.814Z,99016.95
2022-10-31T04:00:08.763Z,99013.94
2022-10-31T04:02:44.264Z,99018.70
2022-10-31T04:05:17.406Z,99020.61
2022-10-31T04:07:55.070Z,99020.61
2022-10-31T04:10:32.879Z,99025.16
2022-10-31T04:13:10.179Z,99028.43
2022-10-31T04:15:45.849Z,99027.87
2022-10-31T04:18:20.185Z,99026.05
2022-10-31T04:21:01.093Z,99030.28
2022-10-31T04:23:34.540Z,99029.01
2022-10-31T04:26:07.181Z,99034.23
2022-10-31T04:28:41.255Z,99033.68
2022-10-31T04:31:15.521Z,99035.90
2022-10-31T04:33:49.911Z,99037.33
2022-10-31T04:36:22.850Z,99037.86
2022-10-31T04:38:55.668Z,99038.89
2022-10-31T04:41:30.075Z,99033.71
2022-10-31T04:44:05.754Z,99038.44
2022-10-31T04:46:39.160Z,99037.02
2022-10-31T04:49:11.872Z,99037.07
2022-10-31T04:51:45.744Z,99036.94
2022-10-31T04:54:18.388Z,99036.95
2022-10-31T04:56:52.470Z,99033.61
2022-10-31T04:59:24.877Z,99033.05
2022-10-31T05:01:58.315Z,99039.20
2022-10-31T05:04:31.675Z,99033.37
2022-10-31T05:07:04.910Z,99034.92
2022-10-31T05:09:37.655Z,99035.80
2022-10-31T05:12:11.758Z,99035.44
2022-10-31T05:14:47.677Z,99036.14
2022-10-31T05:17:22.258Z,99034.52
2022-10-31T05:19:54.200Z,99039.86
2022-10-31T05:22:29.894Z,99038.45
2022-10-31T05:25:03.128Z,99039.32
2022-10-31T05:27:36.370Z,99041.40
2022-10-31T05:30:10.576Z,99045.62
2022-10-31T05:32:45.488Z,99047.91
2022-10-31T05:35:22.650Z,99048.60
2022-10-31T05:37:54.521Z,99053.30
2022-10-31T05:40:27.051Z,99053.31
2022-10-31T05:43:01.099Z,99056.12
2022-10-31T05:45:35.747Z,99057.74
2022-10-31T05:48:08.598Z,99061.63
2022-10-31T05:50:45.754Z,99064.62
2022-10-31T05:53:18.837Z,99065.02
2022-10-31T05:55:51.001Z,99069.73
2022-10-31T05:58:24.571Z,99070.29
2022-10-31T06:01:01.290Z,99073.63
2022-10-31T06:03:33.313Z,99076.63
2022-10-31T06:06:08.512Z,99076.30
2022-10-31T06:08:42.598Z,99079.52
2022-10-31T06:11:17.807Z,99079.34
2022-10-31T06:13:52.343Z,99086.61
2022-10-31T06:16:24.857Z,99084.36
2022-10-31T06:18:57.802Z,99088.38
2022-10-31T06:21:34.819Z,99080.83
2022-10-31T06:24:08.650Z,99082.98
2022-10-31T06:26:40.545Z,99083.38
2022-10-31T06:29:13.103Z,99083.97
2022-10-31T06:31:45.899Z,99083.70
2022-10-31T06:34:18.829Z,99086.58
2022-10-31T06:36:53.500Z,99088.41
2022-10-31T06:39:30.582Z,99085.59
2022-10-31T06:42:03.366Z,99090.92
2022-10-31T06:44:35.918Z,99094.28
2022-10-31T06:47:08.910Z,99095.16
2022-10-31T06:49:43.127Z,99091.09
2022-10-31T06:52:16.247Z,99099.56
2022-10-31T06:54:49.003Z,99097.98
2022-10-31T06:57:23.700Z,99101.52
2022-10-31T06:59:57.587Z,99099.81
2022-10-31T07:02:32.805Z,99101.26
2022-10-31T07:05:05.693Z,99107.07
2022-10-31T07:07:39.086Z,99107.61
2022-10-31T07:12:49.283Z,99110.88
2022-10-31T07:15:35.610Z,99115.10
2022-10-31T07:18:40.317Z,99111.77
2022-10-31T07:21:18.347Z,99112.45
2022-10-31T07:24:21.691Z,99110.52
2022-10-31T07:27:01.816Z,99113.48
2022-10-31T07:29:38.673Z,99113.83
2022-10-31T07:32:20.564Z,99121.63
2022-10-31T07:34:52.372Z,99118.61
2022-10-31T07:37:28.289Z,99120.89
2022-10-31T07:40:32.004Z,99121.38
2022-10-31T07:43:21.229Z,99120.63
2022-10-31T07:45:59.251Z,99122.20
2022-10-31T07:52:53.784Z,99118.23
2022-10-31T07:55:27.263Z,99121.17
2022-10-31T07:58:25.241Z,99121.66
2022-10-31T08:01:46.023Z,99122.75
2022-10-31T08:04:45.027Z,99117.56
2022-10-31T08:07:19.489Z,99121.17
2022-10-31T08:10:26.428Z,99121.80
2022-10-31T08:14:14.006Z,99118.23
2022-10-31T08:17:15.145Z,99116.96
2022-10-31T08:19:54.291Z,99118.77
2022-10-31T08:26:15.886Z,99114.83
2022-10-31T08:28:48.549Z,99118.83
2022-10-31T08:31:21.472Z,99118.30
2022-10-31T08:33:56.402Z,99116.20
2022-10-31T08:36:29.817Z,99115.83
2022-10-31T08:39:02.597Z,99115.15
2022-10-31T08:41:37.352Z,99116.21
2022-10-31T08:44:10.041Z,99116.89
2022-10-31T08:46:43.908Z,99116.98
2022-10-31T08:49:18.309Z,99111.70
2022-10-31T08:51:54.191Z,99109.96
2022-10-31T08:54:28.988Z,99110.80
2022-10-31T08:57:03.295Z,99114.89
2022-10-31T08:59:35.388Z,99115.45
2022-10-31T09:02:09.727Z,99120.80
2022-10-31T09:04:42.643Z,99117.14
2022-10-31T09:07:21.689Z,99117.92
2022-10-31T09:09:54.292Z,99119.84
2022-10-31T09:12:26.892Z,99121.16
2022-10-31T09:15:03.389Z,99120.23
2022-10-31T09:17:36.068Z,99116.81
2022-10-31T09:20:10.155Z,99112.92
2022-10-31T09:22:42.403Z,99110.61
2022-10-31T09:25:16.180Z,99112.85
2022-10-31T09:27:48.694Z,99115.16
2022-10-31T09:30:22.999Z,99115.48
2022-10-31T09:33:07.673Z,99116.73
2022-10-31T09:39:13.362Z,99114.48
2022-10-31T09:42:36.731Z,99112.52
2022-10-31T09:49:33.263Z,99111.67
2022-10-31T09:52:20.773Z,99111.30
2022-10-31T09:55:01.748Z,99109.36
2022-10-31T09:58:08.546Z,99105.85
2022-10-31T10:01:08.697Z,99105.96
2022-10-31T10:04:10.366Z,99108.20
2022-10-31T10:06:51.298Z,99109.13
2022-10-31T10:09:29.605Z,99110.67
2022-10-31T10:16:49.889Z,99109.87
2022-10-31T10:19:42.708Z,99106.81
2022-10-31T10:25:49.893Z,99096.08
2022-10-31T10:28:58.594Z,99096.90
2022-10-31T10:32:13.838Z,99091.39
2022-10-31T10:34:54.195Z,99092.27
2022-10-31T10:37:46.308Z,99090.10
2022-10-31T10:40:29.077Z,99086.36
2022-10-31T10:50:36.898Z,99082.70
2022-10-31T10:53:55.782Z,99076.59
2022-10-31T10:57:09.132Z,99076.43
2022-10-31T10:59:44.007Z,99075.30
2022-10-31T11:06:36.288Z,99071.61
2022-10-31T11:09:49.750Z,99072.94
2022-10-31T11:19:58.040Z,99058.98
2022-10-31T11:22:35.429Z,99055.98
2022-10-31T11:31:28.786Z,99056.44
2022-10-31T11:34:52.517Z,99054.37
2022-10-31T11:37:30.882Z,99047.27
2022-10-31T11:47:01.420Z,99046.71
2022-10-31T11:49:41.790Z,99047.14
2022-10-31T11:52:31.271Z,99044.31
2022-10-31T11:55:58.762Z,99043.46
2022-10-31T12:02:45.266Z,99044.38
2022-10-31T12:05:58.110Z,99041.86
2022-10-31T12:08:40.012Z,99037.54
2022-10-31T12:11:35.208Z,99037.41
2022-10-31T12:14:29.004Z,99029.89
2022-10-31T12:20:20.751Z,99027.71
2022-10-31T12:23:30.653Z,99025.34
2022-10-31T12:27:01.831Z,99019.64
2022-10-31T12:30:11.465Z,99015.61
2022-10-31T12:33:56.361Z,99010.55
2022-10-31T12:37:06.008Z,99010.23
2022-10-31T12:40:17.389Z,99010.67
2022-10-31T12:43:30.317Z,99007.55
2022-10-31T12:49:54.095Z,99001.07
2022-10-31T12:53:25.812Z,98999.55
2022-10-31T12:59:48.718Z,98995.10
2022-10-31T13:02:51.156Z,98994.30
2022-10-31T13:05:59.554Z,98993.23
2022-10-31T13:08:45.277Z,98995.84
2022-10-31T13:11:31.268Z,98994.86
2022-10-31T13:14:38.976Z,98990.40
2022-10-31T13:17:43.049Z,98993.89
2022-10-31T13:27:45.885Z,98991.50
2022-10-31T13:30:26.634Z,98988.38
2022-10-31T13:33:42.863Z,98986.30
2022-10-31T13:36:35.449Z,98987.97
2022-10-31T13:39:44.242Z,98993.44
2022-10-31T13:45:59.060Z,98993.55
2022-10-31T13:49:13.252Z,98990.73
2022-10-31T13:52:11.586Z,98991.67
2022-10-31T13:56:04.115Z,98993.47
2022-10-31T13:59:26.989Z,98993.06
2022-10-31T14:02:06.160Z,98994.08
2022-10-31T14:05:06.885Z,98989.49
2022-10-31T14:10:56.000Z,98988.49
2022-10-31T14:14:15.848Z,98988.50
2022-10-31T14:17:20.500Z,98986.45
2022-10-31T14:20:10.052Z,98985.63
2022-10-31T14:22:48.413Z,98983.42
2022-10-31T14:26:15.685Z,98983.39
2022-10-31T14:29:37.716Z,98983.11
2022-10-31T14:32:26.246Z,98981.73
2022-10-31T14:35:27.619Z,98981.54
2022-10-31T14:38:31.514Z,98980.70
2022-10-31T14:44:58.022Z,98978.52
2022-10-31T14:50:59.716Z,98972.20
2022-10-31T14:54:16.521Z,98973.34
2022-10-31T15:00:29.375Z,98971.92
2022-10-31T15:03:19.229Z,98970.35
2022-10-31T15:13:26.376Z,98968.35
2022-10-31T15:30:01.808Z,98966.55
2022-10-31T15:33:02.125Z,98971.66
2022-10-31T15:36:00.155Z,98973.20
2022-10-31T15:38:38.680Z,98969.18
2022-10-31T15:48:31.621Z,98981.80
2022-10-31T15:51:54.732Z,98980.96
2022-10-31T15:54:31.194Z,98979.66
2022-10-31T15:57:26.844Z,98980.10
2022-10-31T16:01:14.061Z,98984.63
2022-10-31T16:05:02.944Z,98985.16
2022-10-31T16:08:28.908Z,98988.87
2022-10-31T16:14:48.566Z,98990.66
2022-10-31T16:17:59.274Z,98992.13
2022-10-31T16:21:00.267Z,98991.56
2022-10-31T16:23:38.317Z,98997.20
2022-10-31T16:26:21.849Z,98996.91
2022-10-31T16:37:09.923Z,99004.23
2022-10-31T16:40:06.800Z,99004.83
2022-10-31T16:47:22.204Z,99006.09
2022-10-31T16:53:45.640Z,99009.05
2022-10-31T16:56:49.797Z,99011.42
2022-10-31T16:59:34.179Z,99011.41
2022-10-31T17:02:23.942Z,99009.42
2022-10-31T17:05:05.105Z,99009.05
2022-10-31T17:08:10.624Z,99011.33
2022-10-31T17:15:21.249Z,99012.65
2022-10-31T17:17:59.726Z,99013.89
2022-10-31T17:24:47.718Z,99014.29
2022-10-31T17:27:23.620Z,99017.41
2022-10-31T17:29:57.020Z,99016.59
2022-10-31T17:32:31.078Z,99017.05
2022-10-31T17:38:15.617Z,99018.48
2022-10-31T17:40:53.401Z,99018.00
2022-10-31T17:43:50.026Z,99021.47
2022-10-31T17:46:51.532Z,99021.58
2022-10-31T17:52:55.393Z,99019.06
2022-10-31T17:55:57.855Z,99016.31
2022-10-31T18:04:38.208Z,99009.23
2022-10-31T18:07:11.274Z,99010.56
2022-10-31T18:10:12.183Z,99009.21
2022-10-31T18:17:03.339Z,99011.13
2022-10-31T18:20:02.893Z,99012.46
2022-10-31T18:23:34.066Z,99013.98
2022-10-31T18:26:11.643Z,99015.81
2022-10-31T18:29:12.377Z,99016.58
2022-10-31T18:36:06.476Z,99014.23
2022-10-31T18:39:30.781Z,99011.09
2022-10-31T18:42:12.178Z,99012.01
2022-10-31T18:44:50.267Z,99008.70
2022-10-31T18:48:19.851Z,99015.28
2022-10-31T18:51:46.842Z,99017.27
2022-10-31T18:55:10.821Z,99020.48
2022-10-31T18:58:32.866Z,99016.98
2022-10-31T19:01:37.863Z,99012.06
2022-10-31T19:04:18.044Z,99008.23
2022-10-31T19:10:01.056Z,99003.17
2022-10-31T19:13:21.261Z,98999.30
2022-10-31T19:15:55.920Z,99000.93
2022-10-31T19:18:57.346Z,98999.58
2022-10-31T19:24:38.165Z,99005.45
2022-10-31T19:27:15.232Z,99001.04
2022-10-31T19:30:41.456Z,98997.16
2022-10-31T19:33:39.838Z,98993.33
2022-10-31T19:40:08.379Z,98991.46
2022-10-31T19:42:44.437Z,98992.71
2022-10-31T19:45:21.885Z,98994.13
2022-10-31T19:52:11.700Z,98999.63
2022-10-31T19:55:18.695Z,99001.59
2022-10-31T20:04:43.871Z,98995.77
2022-10-31T20:07:21.897Z,98993.14
2022-10-31T20:10:28.242Z,98992.09
2022-10-31T20:27:34.777Z,98983.34
2022-10-31T20:30:47.184Z,98980.53
2022-10-31T20:37:12.895Z,98981.60
2022-10-31T20:39:52.616Z,98983.38
2022-10-31T20:43:03.292Z,98982.86
2022-10-31T20:46:03.543Z,98981.46
2022-10-31T20:49:03.873Z,98975.65
2022-10-31T20:55:34.297Z,98971.08
2022-10-31T20:58:16.395Z,98964.56
2022-10-31T21:00:58.370Z,98967.93
2022-10-31T21:10:03.475Z,98969.18
2022-10-31T21:13:01.881Z,98969.52
2022-10-31T21:19:05.746Z,98969.89
2022-10-31T21:22:09.932Z,98968.31
2022-10-31T21:24:46.599Z,98962.15
2022-10-31T21:27:22.438Z,98958.79
2022-10-31T21:30:22.035Z,98956.16
2022-10-31T21:33:21.764Z,98950.70
2022-10-31T21:39:50.488Z,98945.08
2022-10-31T21:42:30.355Z,98940.99
2022-10-31T21:54:39.204Z,98936.60
2022-10-31T21:58:00.739Z,98934.32
2022-10-31T22:01:06.121Z,98935.38
2022-10-31T22:08:10.942Z,98937.84
2022-10-31T22:11:12.143Z,98935.02
2022-10-31T22:14:16.877Z,98929.90
2022-10-31T22:17:21.004Z,98920.41
2022-10-31T22:19:57.985Z,98919.70
2022-10-31T22:22:55.152Z,98916.71
2022-10-31T22:25:57.221Z,98910.71
2022-10-31T22:28:36.664Z,98908.08
2022-10-31T22:33:58.627Z,98904.71
2022-10-31T22:36:36.048Z,98902.80
2022-10-31T22:39:37.788Z,98898.39
2022-10-31T22:42:15.636Z,98896.45
2022-10-31T22:44:52.897Z,98892.58
2022-10-31T22:47:28.782Z,98893.98
2022-10-31T22:50:05.809Z,98894.51
2022-10-31T22:53:04.135Z,98896.80
2022-10-31T22:55:47.018Z,98897.86
2022-10-31T22:59:10.768Z,98896.45
2022-10-31T23:02:12.477Z,98890.64
2022-10-31T23:05:15.576Z,98891.69
2022-10-31T23:08:35.888Z,98886.41
2022-10-31T23:11:38.870Z,98885.18
2022-10-31T23:18:01.047Z,98882.52
2022-10-31T23:20:59.892Z,98882.52
2022-10-31T23:27:14.115Z,98879.71
2022-10-31T23:29:51.537Z,98877.95
2022-10-31T23:32:28.427Z,98879.54
2022-10-31T23:42:16.158Z,98870.38
2022-10-31T23:44:49.447Z,98865.29
2022-10-31T23:47:50.136Z,98862.46
2022-10-31T23:50:47.437Z,98865.98
2022-10-31T23:53:24.913Z,98862.45
2022-10-31T23:56:48.341Z,98862.63
2022-10-31T23:59:46.652Z,98860.69
